Fayfield, Pennsylvania
Current Conditions -  °F | °C
As of 10:53 AM on Friday 19 Dec 2014 (Local Time) from KTHV Reporting Station
Overcast Overcast  
Wind Chill: 29°   Ceiling: 3300
Heat Index: 37°   Visibility: 10mi
Dew Point: 24°   Wind: 13mph
Humidity: 59%   Direction: 300°WNW
Pressure: 30.11"   Gusts: NA
Location:  39.9768°N, 76.6853°W
Report Text: KTHV 191553Z AUTO 30011KT 10SM OVC033 03/M04 A3011 RMK AO2 SLP204 T00281044
Loading
Personal Weather Stations






























Interactive Weather Map New forecast layout! Learn more

10-Day Weather Forecast

Advertisements
Track Severe Weather on mobile